createdAt,value
2023-04-03T00:00:20.046Z,7.40
2023-04-03T00:02:46.891Z,7.40
2023-04-03T00:05:13.673Z,7.40
2023-04-03T00:07:40.293Z,7.40
2023-04-03T00:10:07.751Z,7.30
2023-04-03T00:12:34.390Z,7.30
2023-04-03T00:15:01.150Z,7.30
2023-04-03T00:17:27.828Z,7.30
2023-04-03T00:19:54.541Z,7.20
2023-04-03T00:22:21.199Z,7.20
2023-04-03T00:24:47.858Z,7.20
2023-04-03T00:27:14.579Z,7.10
2023-04-03T00:29:41.247Z,7.10
2023-04-03T00:32:07.990Z,7.10
2023-04-03T00:34:34.661Z,7.10
2023-04-03T00:37:01.401Z,7.00
2023-04-03T00:39:28.675Z,7.00
2023-04-03T00:41:55.404Z,7.00
2023-04-03T00:44:34.438Z,7.00
2023-04-03T00:47:02.482Z,6.90
2023-04-03T00:49:29.685Z,6.90
2023-04-03T00:51:58.407Z,6.90
2023-04-03T00:54:25.280Z,6.80
2023-04-03T00:56:54.008Z,6.80
2023-04-03T00:59:26.866Z,6.80
2023-04-03T01:01:58.701Z,6.70
2023-04-03T01:04:37.604Z,6.70
2023-04-03T01:07:27.513Z,6.70
2023-04-03T01:09:59.201Z,6.60
2023-04-03T01:12:32.930Z,6.60
2023-04-03T01:15:04.564Z,6.60
2023-04-03T01:17:37.064Z,6.60
2023-04-03T01:20:25.823Z,6.50
2023-04-03T01:22:55.424Z,6.50
2023-04-03T01:25:22.159Z,6.50
2023-04-03T01:27:49.224Z,6.40
2023-04-03T01:30:19.524Z,6.40
2023-04-03T01:32:46.465Z,6.40
2023-04-03T01:35:14.222Z,6.40
2023-04-03T01:37:40.927Z,6.30
2023-04-03T01:40:09.064Z,6.30
2023-04-03T01:42:35.840Z,6.30
2023-04-03T01:45:02.574Z,6.30
2023-04-03T01:47:29.322Z,6.20
2023-04-03T01:49:56.526Z,6.20
2023-04-03T01:52:23.298Z,6.20
2023-04-03T01:54:51.554Z,6.10
2023-04-03T01:57:18.387Z,6.10
2023-04-03T01:59:45.122Z,6.10
2023-04-03T02:02:13.422Z,6.10
2023-04-03T02:04:40.323Z,6.10
2023-04-03T02:07:07.557Z,6.00
2023-04-03T02:09:34.232Z,6.00
2023-04-03T02:12:01.032Z,6.00
2023-04-03T02:14:28.408Z,5.90
2023-04-03T02:16:55.321Z,5.90
2023-04-03T02:19:23.458Z,5.90
2023-04-03T02:21:50.240Z,5.80
2023-04-03T02:24:16.907Z,5.80
2023-04-03T02:26:43.639Z,5.80
2023-04-03T02:29:10.365Z,5.70
2023-04-03T02:31:37.048Z,5.70
2023-04-03T02:34:04.928Z,5.70
2023-04-03T02:36:32.929Z,5.70
2023-04-03T02:39:03.461Z,5.70
2023-04-03T02:41:35.964Z,5.60
2023-04-03T02:44:07.562Z,5.60
2023-04-03T02:46:34.344Z,5.60
2023-04-03T02:49:01.107Z,5.60
2023-04-03T02:51:27.836Z,5.50
2023-04-03T02:53:54.776Z,5.50
2023-04-03T02:56:25.803Z,5.50
2023-04-03T02:58:52.729Z,5.50
2023-04-03T03:01:20.859Z,5.40
2023-04-03T03:03:47.573Z,5.40
2023-04-03T03:06:17.410Z,5.40
2023-04-03T03:08:44.311Z,5.30
2023-04-03T03:11:11.351Z,5.30
2023-04-03T03:13:38.310Z,5.30
2023-04-03T03:16:05.651Z,5.20
2023-04-03T03:18:32.696Z,5.20
2023-04-03T03:21:01.407Z,5.20
2023-04-03T03:23:29.856Z,5.20
2023-04-03T03:26:08.305Z,5.20
2023-04-03T03:28:37.273Z,5.10
2023-04-03T03:31:06.394Z,5.10
2023-04-03T03:33:34.264Z,5.10
2023-04-03T03:36:01.573Z,5.10
2023-04-03T03:38:28.332Z,5.00
2023-04-03T03:40:55.571Z,5.00
2023-04-03T03:43:23.810Z,5.00
2023-04-03T03:45:53.483Z,5.00
2023-04-03T03:48:21.433Z,5.00
2023-04-03T03:50:49.116Z,5.00
2023-04-03T03:53:16.118Z,4.90
2023-04-03T03:55:43.565Z,4.90
2023-04-03T03:58:10.682Z,4.90
2023-04-03T04:00:37.874Z,4.90
2023-04-03T04:03:04.696Z,4.90
2023-04-03T04:05:32.602Z,4.80
2023-04-03T04:08:01.293Z,4.80
2023-04-03T04:10:28.133Z,4.80
2023-04-03T04:12:57.351Z,4.80
2023-04-03T04:15:27.875Z,4.80
2023-04-03T04:17:55.990Z,4.70
2023-04-03T04:20:23.524Z,4.70
2023-04-03T04:22:50.332Z,4.70
2023-04-03T04:25:19.198Z,4.70
2023-04-03T04:27:46.288Z,4.60
2023-04-03T04:30:15.203Z,4.60
2023-04-03T04:32:42.774Z,4.60
2023-04-03T04:35:10.641Z,4.60
2023-04-03T04:37:41.096Z,4.60
2023-04-03T04:40:09.030Z,4.60
2023-04-03T04:42:35.685Z,4.50
2023-04-03T04:45:02.476Z,4.50
2023-04-03T04:47:30.688Z,4.50
2023-04-03T04:49:57.806Z,4.50
2023-04-03T04:52:24.752Z,4.50
2023-04-03T04:54:51.459Z,4.40
2023-04-03T04:57:18.593Z,4.40
2023-04-03T04:59:46.474Z,4.40
2023-04-03T05:02:13.239Z,4.40
2023-04-03T05:04:42.630Z,4.40
2023-04-03T05:07:15.497Z,4.40
2023-04-03T05:09:43.229Z,4.40
2023-04-03T05:12:11.096Z,4.30
2023-04-03T05:14:43.530Z,4.30
2023-04-03T05:17:11.385Z,4.30
2023-04-03T05:19:41.657Z,4.30
2023-04-03T05:22:09.908Z,4.40
2023-04-03T05:24:36.890Z,4.30
2023-04-03T05:27:04.879Z,4.20
2023-04-03T05:29:34.548Z,4.20
2023-04-03T05:32:02.639Z,4.20
2023-04-03T05:34:29.419Z,4.20
2023-04-03T05:36:56.961Z,4.20
2023-04-03T05:39:25.212Z,4.20
2023-04-03T05:41:51.992Z,4.20
2023-04-03T05:44:18.753Z,4.20
2023-04-03T05:46:47.323Z,4.20
2023-04-03T05:49:14.491Z,4.10
2023-04-03T05:51:41.600Z,4.20
2023-04-03T05:54:21.356Z,4.10
2023-04-03T05:56:48.541Z,4.10
2023-04-03T05:59:15.564Z,4.10
2023-04-03T06:01:42.628Z,4.10
2023-04-03T06:04:10.107Z,4.10
2023-04-03T06:06:49.142Z,4.10
2023-04-03T06:09:17.192Z,4.10
2023-04-03T06:11:44.817Z,4.10
2023-04-03T06:14:12.297Z,4.10
2023-04-03T06:16:40.281Z,4.20
2023-04-03T06:19:12.001Z,4.20
2023-04-03T06:21:42.203Z,4.20
2023-04-03T06:24:13.202Z,4.30
2023-04-03T06:26:39.815Z,4.30
2023-04-03T06:29:06.504Z,4.30
2023-04-03T06:31:33.276Z,4.40
2023-04-03T06:34:00.404Z,4.40
2023-04-03T06:36:27.062Z,4.50
2023-04-03T06:38:53.690Z,4.50
2023-04-03T06:41:20.328Z,4.60
2023-04-03T06:43:47.045Z,4.70
2023-04-03T06:46:18.851Z,4.80
2023-04-03T06:48:45.674Z,4.90
2023-04-03T06:51:18.556Z,5.10
2023-04-03T06:53:45.876Z,5.30
2023-04-03T06:56:12.590Z,5.50
2023-04-03T06:58:39.532Z,5.70
2023-04-03T07:01:06.365Z,5.80
2023-04-03T07:03:34.497Z,6.00
2023-04-03T07:06:01.928Z,6.30
2023-04-03T07:08:29.604Z,6.40
2023-04-03T07:10:56.404Z,6.70
2023-04-03T07:13:23.100Z,6.90
2023-04-03T07:15:49.976Z,7.10
2023-04-03T07:18:17.889Z,7.40
2023-04-03T07:20:44.826Z,7.70
2023-04-03T07:23:11.756Z,8.00
2023-04-03T07:25:44.022Z,8.30
2023-04-03T07:28:10.748Z,8.70
2023-04-03T07:30:46.821Z,9.00
2023-04-03T07:33:15.510Z,9.30
2023-04-03T07:35:43.336Z,9.60
2023-04-03T07:38:10.780Z,9.90
2023-04-03T07:40:38.120Z,10.20
2023-04-03T07:43:06.108Z,10.50
2023-04-03T07:45:35.754Z,10.80
2023-04-03T07:48:02.968Z,11.10
2023-04-03T07:50:31.230Z,11.40
2023-04-03T07:52:58.649Z,11.60
2023-04-03T07:55:26.186Z,11.80
2023-04-03T07:57:52.829Z,12.00
2023-04-03T08:00:20.622Z,12.20
2023-04-03T08:02:52.386Z,12.40
2023-04-03T08:05:21.920Z,12.60
2023-04-03T08:07:49.033Z,12.80
2023-04-03T08:10:16.392Z,12.90
2023-04-03T08:12:43.183Z,13.10
2023-04-03T08:15:10.657Z,13.30
2023-04-03T08:17:37.383Z,13.50
2023-04-03T08:20:07.352Z,13.70
2023-04-03T08:22:34.412Z,13.80
2023-04-03T08:25:02.408Z,14.00
2023-04-03T08:27:29.441Z,14.20
2023-04-03T08:29:57.864Z,14.40
2023-04-03T08:32:25.292Z,14.50
2023-04-03T08:34:52.141Z,14.70
2023-04-03T08:37:18.849Z,14.90
2023-04-03T08:39:45.596Z,15.10
2023-04-03T08:42:37.522Z,15.30
2023-04-03T08:45:15.711Z,15.50
2023-04-03T08:47:46.947Z,15.70
2023-04-03T08:50:22.830Z,15.80
2023-04-03T08:52:53.407Z,15.90
2023-04-03T08:55:22.869Z,16.00
2023-04-03T08:57:52.011Z,16.10
2023-04-03T09:00:23.827Z,16.20
2023-04-03T09:02:53.662Z,16.20
2023-04-03T09:05:31.070Z,16.20
2023-04-03T09:08:10.079Z,16.20
2023-04-03T09:10:40.394Z,16.10
2023-04-03T09:13:28.814Z,16.00
2023-04-03T09:15:57.154Z,16.00
2023-04-03T09:18:29.818Z,15.90
2023-04-03T09:21:13.792Z,15.90
2023-04-03T09:23:51.452Z,15.80
2023-04-03T09:26:41.001Z,15.80
2023-04-03T09:29:09.043Z,15.80
2023-04-03T09:31:44.676Z,15.90
2023-04-03T09:34:23.412Z,15.90
2023-04-03T09:36:52.377Z,16.00
2023-04-03T09:39:22.681Z,16.00
2023-04-03T09:42:39.841Z,16.10
2023-04-03T09:45:22.803Z,16.20
2023-04-03T09:47:49.830Z,16.30
2023-04-03T09:50:22.160Z,16.30
2023-04-03T09:52:52.810Z,16.40
2023-04-03T09:55:28.091Z,16.40
2023-04-03T09:57:57.954Z,16.50
2023-04-03T10:00:39.565Z,16.60
2023-04-03T10:03:24.100Z,16.60
2023-04-03T10:05:52.397Z,16.80
2023-04-03T10:08:19.129Z,16.90
2023-04-03T10:10:48.712Z,17.10
2023-04-03T10:13:22.200Z,17.30
2023-04-03T10:15:58.702Z,17.60
2023-04-03T10:18:53.870Z,17.70
2023-04-03T10:21:29.851Z,17.90
2023-04-03T10:24:02.512Z,18.00
2023-04-03T10:26:50.284Z,18.00
2023-04-03T10:29:27.898Z,18.00
2023-04-03T10:32:13.846Z,18.10
2023-04-03T10:34:46.781Z,18.10
2023-04-03T10:37:26.990Z,18.00
2023-04-03T10:39:59.575Z,17.90
2023-04-03T10:42:40.193Z,17.80
2023-04-03T10:45:31.281Z,17.60
2023-04-03T10:48:03.756Z,17.40
2023-04-03T10:50:37.034Z,17.10
2023-04-03T10:53:11.666Z,16.80
2023-04-03T10:55:40.445Z,16.50
2023-04-03T10:58:08.447Z,16.20
2023-04-03T11:00:42.824Z,15.90
2023-04-03T11:03:35.124Z,15.60
2023-04-03T11:06:06.796Z,15.20
2023-04-03T11:08:42.728Z,14.90
2023-04-03T11:11:42.900Z,14.50
2023-04-03T11:14:38.012Z,14.20
2023-04-03T11:17:19.668Z,13.90
2023-04-03T11:20:09.043Z,13.70
2023-04-03T11:22:43.266Z,13.40
2023-04-03T11:25:12.655Z,13.20
2023-04-03T11:27:48.074Z,13.00
2023-04-03T11:30:22.771Z,12.90
2023-04-03T11:33:42.858Z,12.70
2023-04-03T11:36:25.423Z,12.60
2023-04-03T11:39:11.147Z,12.40
2023-04-03T11:41:37.980Z,12.30
2023-04-03T11:44:27.018Z,12.10
2023-04-03T11:46:57.244Z,12.10
2023-04-03T11:50:00.853Z,12.00
2023-04-03T11:52:42.266Z,11.90
2023-04-03T11:55:22.805Z,11.80
2023-04-03T11:57:58.236Z,11.70
2023-04-03T12:00:53.065Z,11.70
2023-04-03T12:03:25.827Z,11.60
2023-04-03T12:05:58.284Z,11.50
2023-04-03T12:08:33.678Z,11.50
2023-04-03T12:11:09.543Z,11.50
2023-04-03T12:13:37.906Z,11.50
2023-04-03T12:16:07.172Z,11.50
2023-04-03T12:19:05.154Z,11.50
2023-04-03T12:21:37.632Z,11.60
2023-04-03T12:24:10.633Z,11.60
2023-04-03T12:26:48.853Z,11.70
2023-04-03T12:29:33.943Z,11.70
2023-04-03T12:32:25.192Z,11.70
2023-04-03T12:35:10.478Z,11.60
2023-04-03T12:37:49.066Z,11.60
2023-04-03T12:40:34.407Z,11.50
2023-04-03T12:43:18.287Z,11.50
2023-04-03T12:45:53.307Z,11.50
2023-04-03T12:48:27.035Z,11.50
2023-04-03T12:50:54.821Z,11.50
2023-04-03T12:53:28.217Z,11.50
2023-04-03T12:56:19.145Z,11.50
2023-04-03T12:58:46.217Z,11.50
2023-04-03T13:01:15.998Z,11.40
2023-04-03T13:03:46.524Z,11.40
2023-04-03T13:06:20.055Z,11.40
2023-04-03T13:08:58.902Z,11.40
2023-04-03T13:11:31.000Z,11.30
2023-04-03T13:14:05.981Z,11.30
2023-04-03T13:16:34.578Z,11.30
2023-04-03T13:19:01.506Z,11.30
2023-04-03T13:21:33.813Z,11.30
2023-04-03T13:24:14.885Z,11.30
2023-04-03T13:26:43.501Z,11.30
2023-04-03T13:29:31.060Z,11.30
2023-04-03T13:31:59.828Z,11.30
2023-04-03T13:34:29.827Z,11.20
2023-04-03T13:36:59.918Z,11.30
2023-04-03T13:39:31.087Z,11.20
2023-04-03T13:42:02.631Z,11.30
2023-04-03T13:44:31.788Z,11.30
2023-04-03T13:47:21.809Z,11.30
2023-04-03T13:50:14.907Z,11.30
2023-04-03T13:52:52.571Z,11.30
2023-04-03T13:55:26.620Z,11.30
2023-04-03T13:58:02.623Z,11.40
2023-04-03T14:00:38.569Z,11.40
2023-04-03T14:03:23.760Z,11.40
2023-04-03T14:05:51.273Z,11.50
2023-04-03T14:08:22.092Z,11.50
2023-04-03T14:10:53.354Z,11.50
2023-04-03T14:13:21.402Z,11.60
2023-04-03T14:15:49.576Z,11.50
2023-04-03T14:18:19.095Z,11.50
2023-04-03T14:20:46.215Z,11.50
2023-04-03T14:23:13.536Z,11.50
2023-04-03T14:25:49.828Z,11.50
2023-04-03T14:28:22.543Z,11.40
2023-04-03T14:30:51.825Z,11.40
2023-04-03T14:33:21.877Z,11.30
2023-04-03T14:35:49.458Z,11.30
2023-04-03T14:38:27.368Z,11.30
2023-04-03T14:40:57.085Z,11.30
2023-04-03T14:43:27.418Z,11.30
2023-04-03T14:45:54.370Z,11.20
2023-04-03T14:48:24.955Z,11.20
2023-04-03T14:51:04.530Z,11.20
2023-04-03T14:53:38.829Z,11.20
2023-04-03T14:56:13.732Z,11.20
2023-04-03T14:58:40.621Z,11.10
2023-04-03T15:01:07.462Z,11.10
2023-04-03T15:03:34.325Z,11.10
2023-04-03T15:06:01.767Z,11.10
2023-04-03T15:08:32.313Z,11.10
2023-04-03T15:10:59.509Z,11.10
2023-04-03T15:13:26.702Z,11.10
2023-04-03T15:15:53.697Z,11.10
2023-04-03T15:18:30.923Z,11.10
2023-04-03T15:20:57.982Z,11.00
2023-04-03T15:23:29.121Z,11.00
2023-04-03T15:25:56.509Z,11.00
2023-04-03T15:28:27.545Z,11.00
2023-04-03T15:30:54.820Z,10.90
2023-04-03T15:33:22.034Z,10.90
2023-04-03T15:35:48.984Z,10.90
2023-04-03T15:38:15.780Z,10.90
2023-04-03T15:40:43.567Z,10.90
2023-04-03T15:43:11.054Z,10.90
2023-04-03T15:45:38.844Z,10.90
2023-04-03T15:48:06.580Z,10.90
2023-04-03T15:50:35.512Z,10.90
2023-04-03T15:53:02.824Z,10.90
2023-04-03T15:55:32.325Z,10.90
2023-04-03T15:57:59.471Z,11.00
2023-04-03T16:00:27.319Z,11.00
2023-04-03T16:02:58.812Z,11.00
2023-04-03T16:05:26.188Z,11.00
2023-04-03T16:07:52.960Z,11.00
2023-04-03T16:10:20.249Z,11.00
2023-04-03T16:12:47.893Z,11.00
2023-04-03T16:15:14.689Z,11.00
2023-04-03T16:17:42.113Z,11.00
2023-04-03T16:20:10.930Z,10.90
2023-04-03T16:22:38.640Z,10.90
2023-04-03T16:25:07.888Z,10.90
2023-04-03T16:27:35.145Z,10.90
2023-04-03T16:30:01.853Z,10.90
2023-04-03T16:32:30.877Z,10.90
2023-04-03T16:34:58.584Z,10.90
2023-04-03T16:37:27.068Z,10.90
2023-04-03T16:39:55.561Z,10.80
2023-04-03T16:42:22.257Z,10.80
2023-04-03T16:44:48.958Z,10.80
2023-04-03T16:47:17.935Z,10.80
2023-04-03T16:49:44.785Z,10.80
2023-04-03T16:52:11.477Z,10.80
2023-04-03T16:54:38.235Z,10.80
2023-04-03T16:57:04.943Z,10.80
2023-04-03T16:59:31.556Z,10.80
2023-04-03T17:01:58.185Z,10.80
2023-04-03T17:04:24.976Z,10.80
2023-04-03T17:06:52.621Z,10.80
2023-04-03T17:09:24.328Z,10.80
2023-04-03T17:11:51.018Z,10.80
2023-04-03T17:14:17.799Z,10.70
2023-04-03T17:16:45.094Z,10.70
2023-04-03T17:19:12.777Z,10.70
2023-04-03T17:21:39.778Z,10.70
2023-04-03T17:24:09.356Z,10.70
2023-04-03T17:26:37.470Z,10.60
2023-04-03T17:29:05.199Z,10.60
2023-04-03T17:31:32.206Z,10.60
2023-04-03T17:34:01.729Z,10.60
2023-04-03T17:36:33.065Z,10.50
2023-04-03T17:39:00.111Z,10.50
2023-04-03T17:41:27.049Z,10.50
2023-04-03T17:43:56.421Z,10.40
2023-04-03T17:46:24.515Z,10.40
2023-04-03T17:48:51.878Z,10.40
2023-04-03T17:51:21.788Z,10.30
2023-04-03T17:53:48.626Z,10.30
2023-04-03T17:56:22.452Z,10.30
2023-04-03T17:58:50.344Z,10.20
2023-04-03T18:01:23.390Z,10.20
2023-04-03T18:03:53.208Z,10.20
2023-04-03T18:06:22.857Z,10.20
2023-04-03T18:08:52.580Z,10.20
2023-04-03T18:11:19.864Z,10.10
2023-04-03T18:13:46.938Z,10.10
2023-04-03T18:16:14.084Z,10.10
2023-04-03T18:18:41.122Z,10.10
2023-04-03T18:21:13.630Z,10.00
2023-04-03T18:23:46.919Z,10.00
2023-04-03T18:26:17.947Z,10.00
2023-04-03T18:28:54.428Z,9.90
2023-04-03T18:31:21.729Z,9.90
2023-04-03T18:33:48.444Z,9.90
2023-04-03T18:38:43.028Z,9.80
2023-04-03T18:41:10.114Z,9.80
2023-04-03T18:43:36.912Z,9.70
2023-04-03T18:46:05.283Z,9.70
2023-04-03T18:48:34.255Z,9.70
2023-04-03T18:51:02.097Z,9.70
2023-04-03T18:53:29.122Z,9.60
2023-04-03T18:55:55.910Z,9.60
2023-04-03T18:58:22.677Z,9.60
2023-04-03T19:00:49.354Z,9.60
2023-04-03T19:03:16.537Z,9.50
2023-04-03T19:05:43.579Z,9.50
2023-04-03T19:08:10.484Z,9.50
2023-04-03T19:10:37.117Z,9.40
2023-04-03T19:13:03.849Z,9.40
2023-04-03T19:15:31.312Z,9.40
2023-04-03T19:17:58.097Z,9.30
2023-04-03T19:20:24.996Z,9.30
2023-04-03T19:22:51.728Z,9.30
2023-04-03T19:25:19.830Z,9.30
2023-04-03T19:27:47.045Z,9.30
2023-04-03T19:30:14.432Z,9.20
2023-04-03T19:32:41.190Z,9.20
2023-04-03T19:35:08.459Z,9.20
2023-04-03T19:37:35.152Z,9.20
2023-04-03T19:40:01.931Z,9.10
2023-04-03T19:42:29.111Z,9.10
2023-04-03T19:44:57.234Z,9.00
2023-04-03T19:47:24.703Z,9.00
2023-04-03T19:49:51.727Z,9.00
2023-04-03T19:52:18.481Z,9.00
2023-04-03T19:54:45.142Z,8.90
2023-04-03T19:57:11.856Z,8.90
2023-04-03T19:59:38.657Z,8.90
2023-04-03T20:02:06.187Z,8.90
2023-04-03T20:04:32.888Z,8.90
2023-04-03T20:07:01.707Z,8.80
2023-04-03T20:09:28.488Z,8.80
2023-04-03T20:11:57.772Z,8.80
2023-04-03T20:14:24.455Z,8.80
2023-04-03T20:16:51.129Z,8.80
2023-04-03T20:19:17.819Z,8.70
2023-04-03T20:21:44.997Z,8.70
2023-04-03T20:24:13.913Z,8.70
2023-04-03T20:26:46.076Z,8.70
2023-04-03T20:29:14.553Z,8.60
2023-04-03T20:31:42.158Z,8.60
2023-04-03T20:34:09.409Z,8.60
2023-04-03T20:36:36.819Z,8.50
2023-04-03T20:39:04.492Z,8.50
2023-04-03T20:41:33.686Z,8.50
2023-04-03T20:44:00.610Z,8.50
2023-04-03T20:46:42.128Z,8.50
2023-04-03T20:49:15.608Z,8.40
2023-04-03T20:51:42.477Z,8.40
2023-04-03T20:54:09.593Z,8.40
2023-04-03T20:56:36.212Z,8.40
2023-04-03T20:59:04.682Z,8.30
2023-04-03T21:01:32.122Z,8.30
2023-04-03T21:04:10.452Z,8.30
2023-04-03T21:07:14.685Z,8.20
2023-04-03T21:10:19.036Z,8.20
2023-04-03T21:13:23.654Z,8.20
2023-04-03T21:15:52.279Z,8.10
2023-04-03T21:18:52.866Z,8.10
2023-04-03T21:21:26.532Z,8.00
2023-04-03T21:23:54.618Z,8.00
2023-04-03T21:26:22.754Z,7.90
2023-04-03T21:28:52.539Z,7.90
2023-04-03T21:31:22.801Z,7.90
2023-04-03T21:33:50.358Z,7.80
2023-04-03T21:36:17.009Z,7.80
2023-04-03T21:38:45.932Z,7.80
2023-04-03T21:41:12.580Z,7.70
2023-04-03T21:43:39.242Z,7.70
2023-04-03T21:46:06.215Z,7.70
2023-04-03T21:48:33.016Z,7.70
2023-04-03T21:51:04.688Z,7.60
2023-04-03T21:53:31.573Z,7.60
2023-04-03T21:56:00.067Z,7.60
2023-04-03T21:58:33.839Z,7.50
2023-04-03T22:01:11.353Z,7.50
2023-04-03T22:03:38.630Z,7.50
2023-04-03T22:06:05.662Z,7.40
2023-04-03T22:08:32.336Z,7.40
2023-04-03T22:11:06.587Z,7.40
2023-04-03T22:13:33.765Z,7.40
2023-04-03T22:16:01.685Z,7.30
2023-04-03T22:18:29.292Z,7.30
2023-04-03T22:20:56.247Z,7.30
2023-04-03T22:23:23.366Z,7.30
2023-04-03T22:26:05.054Z,7.30
2023-04-03T22:28:33.938Z,7.20
2023-04-03T22:31:02.689Z,7.20
2023-04-03T22:33:30.335Z,7.20
2023-04-03T22:35:57.057Z,7.20
2023-04-03T22:38:24.171Z,7.10
2023-04-03T22:40:58.932Z,7.10
2023-04-03T22:43:27.203Z,7.10
2023-04-03T22:45:53.882Z,7.10
2023-04-03T22:48:20.652Z,7.00
2023-04-03T22:50:48.507Z,7.00
2023-04-03T22:53:15.614Z,7.00
2023-04-03T22:55:42.272Z,7.00
2023-04-03T22:58:09.132Z,7.00
2023-04-03T23:00:36.119Z,6.90
2023-04-03T23:03:02.915Z,6.90
2023-04-03T23:05:29.745Z,6.90
2023-04-03T23:07:56.493Z,6.90
2023-04-03T23:10:23.290Z,6.80
2023-04-03T23:12:50.234Z,6.80
2023-04-03T23:15:19.272Z,6.80
2023-04-03T23:17:48.397Z,6.70
2023-04-03T23:20:15.535Z,6.70
2023-04-03T23:22:45.502Z,6.70
2023-04-03T23:25:12.349Z,6.70
2023-04-03T23:27:39.029Z,6.70
2023-04-03T23:30:06.469Z,6.60
2023-04-03T23:32:33.193Z,6.60
2023-04-03T23:34:59.937Z,6.60
2023-04-03T23:37:27.243Z,6.60
2023-04-03T23:39:53.984Z,6.60
2023-04-03T23:42:20.663Z,6.50
2023-04-03T23:44:47.957Z,6.50
2023-04-03T23:47:14.648Z,6.50
2023-04-03T23:49:41.331Z,6.50
2023-04-03T23:52:07.982Z,6.50
2023-04-03T23:54:34.592Z,6.50
2023-04-03T23:57:01.263Z,6.40
2023-04-03T23:59:28.064Z,6.40
